Terminal Aerodrome Forecast
Issued by NWS Twin Cities, MN

Home | Current Version | Previous Version | Graphics & Text | Print | Product List | Glossary On
Versions: 1 2 3 4 5 6 7 8 9 10 11 12 13 14 15 16 17
000
FTUS43 KMPX 250536
TAFEAU
TAF
KEAU 250536Z 2506/2606 13007KT 1 1/2SM -SN BR SCT008 OVC015
     FM250930 18005KT 3SM BR OVC008
     FM251400 23012G20KT P6SM BKN014 OVC022
     FM251800 26018G27KT P6SM BKN025
     FM260100 28015G22KT P6SM BKN040=

USA.gov is the U.S. government's official web portal to all federal, state and local government web resources and services.